Time;durP1;ratioP1;P1;durP2;ratioP2;P2;SDS_P1;SDS_P2;PMS_P1;PMS_P2;Temp;Humidity;BMP_temperature;BMP_pressure;BME280_temperature;BME280_humidity;BME280_pressure;Samples;Min_cycle;Max_cycle;Signal;HPM_P1;HPM_P2
2023/05/12 00:00:47;;;;;;;5.95;5.22;;;13.90;99.90;;;;;;5082917;28;20039;-33
2023/05/12 00:03:13;;;;;;;5.45;4.90;;;13.90;99.90;;;;;;5083611;28;20020;-33
2023/05/12 00:05:38;;;;;;;5.00;4.50;;;13.90;99.90;;;;;;5082873;28;20027;-32
2023/05/12 00:08:04;;;;;;;6.15;5.20;;;13.80;99.90;;;;;;5083626;28;20072;-34
2023/05/12 00:10:30;;;;;;;6.22;5.03;;;13.80;99.90;;;;;;5083148;28;20025;-33
2023/05/12 00:12:56;;;;;;;6.18;5.38;;;13.70;99.90;;;;;;5082608;28;20028;-33
2023/05/12 00:15:22;;;;;;;5.57;5.07;;;13.70;99.90;;;;;;5082478;28;20053;-32
2023/05/12 00:17:47;;;;;;;5.80;5.18;;;13.70;99.90;;;;;;5083238;28;20020;-33
2023/05/12 00:20:13;;;;;;;5.85;5.07;;;13.70;99.90;;;;;;5082747;28;20032;-33
2023/05/12 00:22:40;;;;;;;6.50;4.90;;;13.70;99.90;;;;;;5082916;28;20111;-33
2023/05/12 00:25:06;;;;;;;5.57;4.63;;;13.60;99.90;;;;;;5083926;28;20103;-33
2023/05/12 00:27:34;;;;;;;5.00;4.50;;;13.60;99.90;;;;;;5081836;28;20565;-33
2023/05/12 00:30:00;;;;;;;4.85;4.45;;;13.60;99.90;;;;;;5082397;28;20024;-33
2023/05/12 00:32:26;;;;;;;5.15;4.65;;;13.60;99.90;;;;;;5081068;28;20020;-33
2023/05/12 00:34:53;;;;;;;5.53;4.93;;;13.60;99.90;;;;;;5082432;28;20757;-33
2023/05/12 00:37:19;;;;;;;6.15;4.82;;;13.50;99.90;;;;;;5081658;28;20643;-33
2023/05/12 00:39:44;;;;;;;9.50;4.45;;;13.50;99.90;;;;;;5081462;28;20098;-43
2023/05/12 00:42:11;;;;;;;4.80;4.32;;;13.50;99.90;;;;;;5082682;28;20112;-34
2023/05/12 00:44:36;;;;;;;5.65;4.55;;;13.50;99.90;;;;;;5082872;28;20712;-34
2023/05/12 00:47:03;;;;;;;4.53;4.05;;;13.40;99.90;;;;;;5082693;28;20028;-34
2023/05/12 00:49:31;;;;;;;4.43;3.78;;;13.40;99.90;;;;;;5082025;28;20031;-34
2023/05/12 00:51:58;;;;;;;4.45;4.05;;;13.40;99.90;;;;;;5082640;28;20712;-34
2023/05/12 00:54:25;;;;;;;4.38;3.72;;;13.40;99.90;;;;;;5081164;28;20058;-34
2023/05/12 00:56:51;;;;;;;4.50;4.05;;;13.40;99.90;;;;;;5082342;28;20035;-34
2023/05/12 00:59:17;;;;;;;5.50;4.00;;;13.30;99.90;;;;;;5081762;28;20035;-34
2023/05/12 01:01:43;;;;;;;4.20;3.80;;;13.30;99.90;;;;;;5082230;28;20028;-32
2023/05/12 01:04:09;;;;;;;4.95;4.45;;;13.30;99.90;;;;;;5082949;28;20026;-34
2023/05/12 01:06:58;;;;;;;4.57;3.50;;;13.30;99.90;;;;;;5082627;28;20031;-34
2023/05/12 01:09:24;;;;;;;3.67;3.17;;;13.30;99.90;;;;;;5079642;28;20036;-34
2023/05/12 01:11:52;;;;;;;3.60;3.00;;;13.20;99.90;;;;;;5082652;28;20173;-34
2023/05/12 01:14:18;;;;;;;2.95;2.65;;;13.20;99.90;;;;;;5078580;28;20027;-33
2023/05/12 01:16:54;;;;;;;3.83;2.70;;;13.20;99.90;;;;;;5081544;28;20044;-34
2023/05/12 01:19:48;;;;;;;2.28;2.05;;;13.20;99.90;;;;;;5080788;28;20020;-33
2023/05/12 01:22:15;;;;;;;2.50;2.30;;;13.20;99.90;;;;;;5077348;28;20127;-33
2023/05/12 01:25:03;;;;;;;2.53;2.20;;;13.20;99.90;;;;;;5081272;28;20032;-34
2023/05/12 01:27:30;;;;;;;2.65;2.45;;;13.10;99.90;;;;;;5081665;28;20053;-34
2023/05/12 01:29:59;;;;;;;2.95;2.20;;;13.10;99.90;;;;;;5081539;28;20019;-35
2023/05/12 01:32:25;;;;;;;3.40;2.17;;;13.10;99.90;;;;;;5081383;28;20387;-33
2023/05/12 01:34:51;;;;;;;1.75;1.65;;;13.00;99.90;;;;;;5080665;28;20028;-34
2023/05/12 01:37:16;;;;;;;2.20;1.95;;;13.00;99.90;;;;;;5080384;28;20132;-34
2023/05/12 01:39:42;;;;;;;2.53;2.15;;;13.00;99.90;;;;;;5080678;28;20142;-34
2023/05/12 01:42:07;;;;;;;1.63;1.52;;;13.00;99.90;;;;;;5080988;28;20040;-34
2023/05/12 01:44:33;;;;;;;1.92;1.73;;;13.00;99.90;;;;;;5078970;28;20036;-34
2023/05/12 01:47:00;;;;;;;2.58;2.05;;;13.00;99.90;;;;;;5082784;28;20463;-35
2023/05/12 01:49:25;;;;;;;2.47;2.17;;;13.00;99.90;;;;;;5081162;28;20120;-34
2023/05/12 01:51:51;;;;;;;1.63;1.50;;;13.00;99.90;;;;;;5081362;28;20032;-33
2023/05/12 01:54:17;;;;;;;2.30;1.90;;;13.00;99.90;;;;;;5081628;28;20046;-33
2023/05/12 01:56:42;;;;;;;1.90;1.70;;;13.00;99.90;;;;;;5081208;28;20131;-34
2023/05/12 01:59:08;;;;;;;1.85;1.60;;;13.00;99.90;;;;;;5080792;28;20903;-34
2023/05/12 02:01:33;;;;;;;1.90;1.75;;;13.00;99.90;;;;;;5080593;28;20068;-34
2023/05/12 02:04:00;;;;;;;2.42;1.98;;;13.00;99.90;;;;;;5080196;28;20032;-34
2023/05/12 02:06:26;;;;;;;3.05;2.15;;;13.00;99.90;;;;;;5080760;28;20028;-34
2023/05/12 02:08:51;;;;;;;2.33;2.10;;;13.00;99.90;;;;;;5081337;28;20031;-34
2023/05/12 02:11:17;;;;;;;4.03;2.45;;;13.00;99.90;;;;;;5080214;28;20035;-35
2023/05/12 02:13:46;;;;;;;3.45;2.30;;;13.00;99.90;;;;;;5081301;28;20023;-33
2023/05/12 02:16:11;;;;;;;3.28;2.53;;;13.00;99.90;;;;;;5080946;28;20040;-34
2023/05/12 02:18:37;;;;;;;2.83;2.53;;;13.00;99.90;;;;;;5080056;28;20545;-34
2023/05/12 02:21:03;;;;;;;4.43;2.90;;;13.00;99.90;;;;;;5081177;28;20875;-35
2023/05/12 02:23:29;;;;;;;3.90;3.15;;;13.00;99.90;;;;;;5080946;28;20390;-33
2023/05/12 02:25:55;;;;;;;4.50;3.90;;;13.00;99.90;;;;;;5080330;28;20464;-33
2023/05/12 02:28:20;;;;;;;4.22;3.33;;;13.00;99.90;;;;;;5080850;28;20031;-34
2023/05/12 02:30:51;;;;;;;4.80;3.65;;;13.00;99.90;;;;;;5080490;28;20052;-34
2023/05/12 02:33:18;;;;;;;5.97;4.65;;;13.00;99.90;;;;;;5079998;28;20047;-35
2023/05/12 02:35:44;;;;;;;5.32;4.13;;;13.00;99.90;;;;;;5080528;28;20036;-35
2023/05/12 02:38:11;;;;;;;7.18;4.97;;;13.00;99.90;;;;;;5080967;28;20606;-35
2023/05/12 02:40:36;;;;;;;6.15;4.70;;;13.00;99.90;;;;;;5080067;28;20024;-35
2023/05/12 02:43:02;;;;;;;6.97;4.90;;;13.00;99.90;;;;;;5080668;28;20032;-34
2023/05/12 02:45:28;;;;;;;7.18;5.30;;;13.00;99.90;;;;;;5080257;28;20066;-42
2023/05/12 02:47:53;;;;;;;7.57;5.80;;;13.00;99.90;;;;;;5080398;28;20023;-33
2023/05/12 02:50:20;;;;;;;8.20;6.07;;;13.00;99.90;;;;;;5079974;28;20034;-33
2023/05/12 02:52:46;;;;;;;7.38;5.57;;;13.00;99.90;;;;;;5080579;28;20104;-33
2023/05/12 02:55:12;;;;;;;7.68;5.93;;;13.00;99.90;;;;;;5079912;28;20512;-34
2023/05/12 02:57:37;;;;;;;10.63;6.80;;;13.10;99.90;;;;;;5079625;28;20028;-34
2023/05/12 03:00:23;;;;;;;9.10;7.05;;;13.00;99.90;;;;;;5080674;28;20099;-34
2023/05/12 03:02:49;;;;;;;10.20;7.47;;;13.00;99.90;;;;;;5079908;28;20032;-35
2023/05/12 03:05:15;;;;;;;10.38;7.82;;;13.00;99.90;;;;;;5080900;28;20027;-33
2023/05/12 03:07:40;;;;;;;10.88;7.72;;;13.00;99.90;;;;;;5079369;28;20028;-35
2023/05/12 03:10:08;;;;;;;10.05;7.38;;;13.00;99.90;;;;;;5081588;28;20035;-35
2023/05/12 03:12:34;;;;;;;12.15;8.20;;;13.00;99.90;;;;;;5079975;28;20032;-34
2023/05/12 03:14:59;;;;;;;10.23;7.57;;;13.00;99.90;;;;;;5080383;28;20130;-33
2023/05/12 03:17:25;;;;;;;10.85;7.72;;;13.00;99.90;;;;;;5080153;28;20028;-34
2023/05/12 03:19:51;;;;;;;12.05;8.00;;;13.00;99.90;;;;;;5081276;28;20379;-35
2023/05/12 03:22:16;;;;;;;10.35;8.38;;;13.00;99.90;;;;;;5080621;28;20024;-35
2023/05/12 03:24:42;;;;;;;9.02;7.43;;;13.00;99.90;;;;;;5081386;28;20671;-33
2023/05/12 03:27:08;;;;;;;11.52;8.45;;;13.00;99.90;;;;;;5080324;28;20031;-34
2023/05/12 03:29:33;;;;;;;10.73;8.32;;;13.00;99.90;;;;;;5079184;28;20078;-34
2023/05/12 03:31:59;;;;;;;9.63;7.07;;;13.10;99.90;;;;;;5080449;28;20024;-35
2023/05/12 03:34:24;;;;;;;12.82;9.48;;;13.10;99.90;;;;;;5079697;28;20036;-34
2023/05/12 03:36:50;;;;;;;11.45;8.18;;;13.10;99.90;;;;;;5079630;28;20063;-35
2023/05/12 03:39:15;;;;;;;12.82;8.20;;;13.10;99.90;;;;;;5080376;28;20795;-34
2023/05/12 03:41:41;;;;;;;14.68;9.32;;;13.10;99.90;;;;;;5079905;28;20432;-35
2023/05/12 03:44:07;;;;;;;11.40;8.70;;;13.10;99.90;;;;;;5079834;28;20113;-35
2023/05/12 03:46:33;;;;;;;12.52;9.15;;;13.10;99.90;;;;;;5079831;28;20024;-35
2023/05/12 03:48:59;;;;;;;13.93;9.63;;;13.10;99.90;;;;;;5082702;28;20086;-34
2023/05/12 03:51:24;;;;;;;13.50;9.68;;;13.10;99.90;;;;;;5082842;28;20437;-35
2023/05/12 03:53:50;;;;;;;11.82;9.27;;;13.10;99.90;;;;;;5083057;28;20052;-35
2023/05/12 03:56:16;;;;;;;13.90;10.57;;;13.10;99.90;;;;;;5083414;28;20043;-37
2023/05/12 03:58:42;;;;;;;13.70;9.82;;;13.10;99.90;;;;;;5083074;28;20039;-35
2023/05/12 04:01:08;;;;;;;11.73;9.25;;;13.20;99.90;;;;;;5083952;28;20031;-33
2023/05/12 04:03:33;;;;;;;13.68;8.95;;;13.20;99.90;;;;;;5082139;28;20024;-34
2023/05/12 04:06:00;;;;;;;12.70;9.63;;;13.20;99.90;;;;;;5084238;28;20035;-36
2023/05/12 04:08:26;;;;;;;12.18;9.32;;;13.20;99.90;;;;;;5082852;28;20051;-35
2023/05/12 04:10:56;;;;;;;14.05;10.32;;;13.30;99.90;;;;;;5082911;28;20146;-34
2023/05/12 04:13:22;;;;;;;16.65;11.48;;;13.30;99.90;;;;;;5083820;28;20024;-35
2023/05/12 04:15:48;;;;;;;14.35;11.00;;;13.30;99.90;;;;;;5083980;28;20078;-35
2023/05/12 04:18:14;;;;;;;18.20;11.88;;;13.30;99.90;;;;;;5082748;28;20020;-35
2023/05/12 04:20:39;;;;;;;18.15;11.38;;;13.30;99.90;;;;;;5083214;28;20028;-35
2023/05/12 04:23:05;;;;;;;18.35;12.57;;;13.40;99.90;;;;;;5083315;28;20020;-35
2023/05/12 04:25:31;;;;;;;12.57;9.85;;;13.40;99.90;;;;;;5082151;28;20045;-35
2023/05/12 04:27:56;;;;;;;19.80;13.65;;;13.40;99.90;;;;;;5083741;28;20105;-35
2023/05/12 04:30:22;;;;;;;17.52;12.27;;;13.40;99.90;;;;;;5082347;28;20040;-36
2023/05/12 04:32:48;;;;;;;21.95;15.25;;;13.50;99.90;;;;;;5082684;28;20016;-34
2023/05/12 04:35:14;;;;;;;18.80;13.82;;;13.50;99.90;;;;;;5083451;28;20031;-34
2023/05/12 04:37:40;;;;;;;18.23;13.15;;;13.50;99.90;;;;;;5082398;28;20028;-34
2023/05/12 04:40:07;;;;;;;22.00;14.98;;;13.50;99.90;;;;;;5082084;28;20082;-34
2023/05/12 04:42:32;;;;;;;19.17;13.70;;;13.50;99.90;;;;;;5082875;28;20035;-35
2023/05/12 04:44:58;;;;;;;20.02;13.77;;;13.60;99.90;;;;;;5082837;28;20023;-34
2023/05/12 04:47:23;;;;;;;19.98;14.25;;;13.60;99.90;;;;;;5081715;28;20024;-35
2023/05/12 04:49:52;;;;;;;21.73;15.82;;;13.60;99.90;;;;;;5083636;28;20035;-35
2023/05/12 04:52:17;;;;;;;21.88;14.98;;;13.70;99.90;;;;;;5083022;28;20028;-34
2023/05/12 04:54:43;;;;;;;25.13;16.65;;;13.70;99.90;;;;;;5082352;28;20817;-36
2023/05/12 04:57:08;;;;;;;20.17;14.45;;;13.70;99.90;;;;;;5071407;28;20039;-35
2023/05/12 04:59:34;;;;;;;24.90;16.45;;;13.70;99.90;;;;;;5081344;28;20051;-35
2023/05/12 05:02:00;;;;;;;21.83;16.02;;;13.80;99.90;;;;;;5082471;28;20115;-35
2023/05/12 05:04:26;;;;;;;27.90;19.50;;;13.80;99.90;;;;;;5082444;28;20026;-35
2023/05/12 05:06:51;;;;;;;26.05;19.05;;;13.90;99.90;;;;;;5082120;28;20684;-34
2023/05/12 05:09:17;;;;;;;24.70;17.58;;;13.90;99.90;;;;;;5082185;28;20120;-35
2023/05/12 05:11:42;;;;;;;22.05;15.48;;;13.90;99.90;;;;;;5081798;28;20482;-34
2023/05/12 05:14:08;;;;;;;23.52;17.63;;;13.90;99.90;;;;;;5082856;28;20032;-35
2023/05/12 05:16:34;;;;;;;24.35;18.23;;;13.90;99.90;;;;;;5082123;28;20089;-33
2023/05/12 05:19:00;;;;;;;22.63;16.23;;;14.00;99.90;;;;;;5082944;28;20475;-34
2023/05/12 05:21:25;;;;;;;21.63;15.70;;;14.00;99.90;;;;;;5081642;28;20024;-35
2023/05/12 05:23:51;;;;;;;22.08;15.82;;;14.00;99.90;;;;;;5082685;28;20835;-33
2023/05/12 05:26:17;;;;;;;22.45;15.65;;;14.00;99.90;;;;;;5081631;28;20550;-34
2023/05/12 05:28:43;;;;;;;22.23;16.02;;;14.10;99.90;;;;;;5081517;28;20087;-39
2023/05/12 05:31:15;;;;;;;22.67;16.38;;;14.20;99.90;;;;;;5081833;28;20035;-35
2023/05/12 05:33:40;;;;;;;23.77;16.65;;;14.20;99.90;;;;;;5081901;28;20032;-34
2023/05/12 05:36:07;;;;;;;21.73;15.88;;;14.20;99.90;;;;;;5080905;28;20071;-36
2023/05/12 05:38:32;;;;;;;19.65;14.88;;;14.30;99.90;;;;;;5081460;28;20032;-35
2023/05/12 05:40:58;;;;;;;24.08;17.00;;;14.40;99.90;;;;;;5081833;28;20032;-34
2023/05/12 05:43:23;;;;;;;22.67;16.70;;;14.40;99.90;;;;;;5080865;28;20032;-34
2023/05/12 05:45:50;;;;;;;22.65;16.15;;;14.50;99.90;;;;;;5082715;28;20035;-36
2023/05/12 05:48:16;;;;;;;23.63;17.50;;;14.50;99.90;;;;;;5080914;28;20093;-34
2023/05/12 05:50:41;;;;;;;22.65;16.00;;;14.50;99.90;;;;;;5080118;28;20047;-35
2023/05/12 05:53:07;;;;;;;22.60;16.95;;;14.60;99.90;;;;;;5082119;28;20040;-35
2023/05/12 05:55:32;;;;;;;20.90;15.23;;;14.70;99.90;;;;;;5081530;28;20039;-36
2023/05/12 05:57:59;;;;;;;23.73;16.90;;;14.70;99.90;;;;;;5081443;28;20050;-34
2023/05/12 06:00:24;;;;;;;21.80;15.93;;;14.80;99.90;;;;;;5081420;28;20024;-34
2023/05/12 06:02:50;;;;;;;20.85;15.30;;;14.80;99.90;;;;;;5081470;28;20074;-35
2023/05/12 06:05:16;;;;;;;19.17;14.75;;;14.90;99.90;;;;;;5081316;28;20043;-35
2023/05/12 06:07:42;;;;;;;22.60;17.02;;;14.90;99.90;;;;;;5080426;28;20023;-34
2023/05/12 06:10:07;;;;;;;21.80;15.70;;;14.90;99.90;;;;;;5081154;28;20031;-36
2023/05/12 06:12:33;;;;;;;19.27;15.82;;;14.90;99.90;;;;;;5080441;28;20072;-34
2023/05/12 06:14:58;;;;;;;21.00;16.00;;;14.90;99.90;;;;;;5081651;28;20143;-34
2023/05/12 06:17:24;;;;;;;21.80;15.63;;;14.90;99.90;;;;;;5080383;28;20067;-35
2023/05/12 06:19:49;;;;;;;17.88;14.20;;;14.90;99.90;;;;;;5081298;28;20062;-36
2023/05/12 06:22:15;;;;;;;18.65;14.00;;;15.00;99.90;;;;;;5081262;28;20471;-35
2023/05/12 06:24:41;;;;;;;18.58;15.02;;;15.10;99.90;;;;;;5080873;28;20020;-34
2023/05/12 06:27:07;;;;;;;17.50;14.43;;;15.10;99.90;;;;;;5081746;28;20028;-34
2023/05/12 06:29:33;;;;;;;24.50;17.45;;;15.10;99.90;;;;;;5080367;28;20020;-35
2023/05/12 06:31:58;;;;;;;19.77;15.38;;;15.10;99.90;;;;;;5080988;28;20089;-34
2023/05/12 06:34:24;;;;;;;17.63;14.43;;;15.10;99.90;;;;;;5080025;28;20350;-36
2023/05/12 06:36:50;;;;;;;18.55;14.45;;;15.10;99.90;;;;;;5080402;28;20831;-35
2023/05/12 06:39:15;;;;;;;20.05;15.45;;;15.20;99.90;;;;;;5080177;28;20103;-35
2023/05/12 06:41:41;;;;;;;19.27;15.40;;;15.20;99.90;;;;;;5080345;28;20045;-35
2023/05/12 06:44:11;;;;;;;20.00;15.80;;;15.30;99.90;;;;;;5081420;28;20127;-34
2023/05/12 06:46:37;;;;;;;17.70;14.30;;;15.30;99.90;;;;;;5080002;28;20113;-34
2023/05/12 06:49:03;;;;;;;19.13;14.45;;;15.40;99.90;;;;;;5080900;28;20040;-35
2023/05/12 06:51:29;;;;;;;18.73;14.50;;;15.40;99.90;;;;;;5080831;28;20096;-35
2023/05/12 06:53:54;;;;;;;17.10;14.32;;;15.50;99.90;;;;;;5080021;28;20498;-36
2023/05/12 06:56:20;;;;;;;20.17;16.00;;;15.50;99.90;;;;;;5080708;28;20469;-35
2023/05/12 06:58:46;;;;;;;18.88;15.68;;;15.60;99.90;;;;;;5080437;28;20028;-33
2023/05/12 07:01:12;;;;;;;17.00;14.40;;;15.60;99.90;;;;;;5080164;28;20051;-36
2023/05/12 07:03:37;;;;;;;15.80;13.63;;;15.70;99.90;;;;;;5080365;28;20719;-36
2023/05/12 07:06:03;;;;;;;20.25;14.73;;;15.70;99.90;;;;;;5081278;28;20449;-34
2023/05/12 07:08:29;;;;;;;18.20;13.98;;;15.80;99.90;;;;;;5080310;28;20027;-35
2023/05/12 07:10:54;;;;;;;17.25;14.07;;;15.80;99.90;;;;;;5081301;28;20101;-33
2023/05/12 07:13:20;;;;;;;14.48;12.80;;;15.90;99.90;;;;;;5080603;28;20107;-35
2023/05/12 07:15:45;;;;;;;17.95;13.48;;;16.00;99.90;;;;;;5080314;28;20040;-34
2023/05/12 07:18:11;;;;;;;18.15;15.20;;;16.10;99.90;;;;;;5080824;28;20024;-35
2023/05/12 07:20:37;;;;;;;15.88;12.43;;;16.10;99.90;;;;;;5079511;28;20032;-35
2023/05/12 07:23:03;;;;;;;14.60;12.32;;;16.20;99.90;;;;;;5081436;28;20016;-35
2023/05/12 07:25:29;;;;;;;14.73;13.05;;;16.20;99.90;;;;;;5084197;28;20031;-34
2023/05/12 07:27:54;;;;;;;16.40;12.30;;;16.20;99.90;;;;;;5083931;28;20024;-35
2023/05/12 07:30:21;;;;;;;13.18;11.52;;;16.20;99.90;;;;;;5084415;28;20115;-35
2023/05/12 07:32:46;;;;;;;15.13;13.13;;;16.20;99.90;;;;;;5083749;28;20039;-34
2023/05/12 07:35:12;;;;;;;12.77;11.02;;;16.20;99.90;;;;;;5083573;28;20028;-34
2023/05/12 07:37:38;;;;;;;12.55;10.80;;;16.30;99.90;;;;;;5084179;28;20045;-35
2023/05/12 07:40:04;;;;;;;12.85;11.15;;;16.30;99.90;;;;;;5083948;28;20036;-34
2023/05/12 07:42:30;;;;;;;14.23;12.45;;;16.40;99.90;;;;;;5083447;28;20036;-35
2023/05/12 07:44:55;;;;;;;11.38;10.05;;;16.40;99.90;;;;;;5084377;28;20089;-35
2023/05/12 07:47:21;;;;;;;12.88;11.25;;;16.40;99.90;;;;;;5083289;28;20858;-36
2023/05/12 07:49:46;;;;;;;11.52;9.65;;;16.40;99.90;;;;;;5082779;28;20078;-33
2023/05/12 07:52:12;;;;;;;11.88;10.13;;;16.50;99.90;;;;;;5084101;28;20031;-34
2023/05/12 07:54:38;;;;;;;12.98;9.88;;;16.50;99.90;;;;;;5083932;28;20028;-35
2023/05/12 07:57:03;;;;;;;10.40;9.13;;;16.60;99.90;;;;;;5083452;28;20071;-35
2023/05/12 07:59:29;;;;;;;12.13;9.93;;;16.60;99.90;;;;;;5083890;28;20024;-34
2023/05/12 08:01:54;;;;;;;9.52;8.40;;;16.70;99.90;;;;;;5083882;28;20459;-34
2023/05/12 08:04:21;;;;;;;10.77;9.30;;;16.70;99.90;;;;;;5082628;28;20391;-33
2023/05/12 08:06:46;;;;;;;11.32;10.13;;;16.70;99.90;;;;;;5083102;28;20027;-35
2023/05/12 08:09:14;;;;;;;9.93;8.50;;;16.80;99.90;;;;;;5083382;28;20047;-36
2023/05/12 08:11:40;;;;;;;8.57;7.68;;;16.80;99.90;;;;;;5082274;28;20097;-34
2023/05/12 08:14:06;;;;;;;9.27;8.38;;;16.90;99.90;;;;;;5083886;28;20111;-34
2023/05/12 08:16:31;;;;;;;10.00;7.65;;;17.00;99.90;;;;;;5082118;28;20053;-34
2023/05/12 08:18:58;;;;;;;8.30;7.30;;;17.00;99.90;;;;;;5083933;28;20016;-35
2023/05/12 08:21:23;;;;;;;8.50;6.70;;;17.10;99.90;;;;;;5083742;28;20086;-35
2023/05/12 08:23:49;;;;;;;9.10;7.53;;;17.10;99.90;;;;;;5082809;28;20020;-33
2023/05/12 08:26:14;;;;;;;7.72;7.03;;;17.10;99.90;;;;;;5083077;28;21674;-35
2023/05/12 08:28:40;;;;;;;7.82;7.00;;;17.20;99.90;;;;;;5082847;28;20052;-35
2023/05/12 08:31:06;;;;;;;7.15;6.30;;;17.20;99.90;;;;;;5082805;28;20028;-36
2023/05/12 08:33:34;;;;;;;6.57;5.97;;;17.30;99.90;;;;;;5082614;28;20055;-36
2023/05/12 08:36:00;;;;;;;6.85;5.95;;;17.30;99.90;;;;;;5082910;28;20211;-35
2023/05/12 08:38:26;;;;;;;6.10;5.53;;;17.30;99.90;;;;;;5082036;28;20031;-34
2023/05/12 08:41:12;;;;;;;6.10;5.50;;;17.40;99.90;;;;;;5083392;28;20024;-35
2023/05/12 08:43:45;;;;;;;5.43;4.93;;;17.40;99.90;;;;;;5081972;28;20024;-35
2023/05/12 08:46:11;;;;;;;6.05;4.72;;;17.50;99.90;;;;;;5062098;28;20098;-35
2023/05/12 08:48:39;;;;;;;5.57;5.07;;;17.60;99.90;;;;;;5077197;28;20093;-35
2023/05/12 08:51:11;;;;;;;5.35;4.85;;;17.80;99.90;;;;;;5083011;28;20069;-34
2023/05/12 08:53:39;;;;;;;4.95;4.45;;;17.90;99.90;;;;;;5081028;28;20121;-35
2023/05/12 08:56:07;;;;;;;5.07;4.60;;;18.00;99.90;;;;;;5083032;28;20048;-35
2023/05/12 08:58:34;;;;;;;5.00;4.60;;;18.20;99.90;;;;;;5082429;28;20020;-35
2023/05/12 09:01:03;;;;;;;5.47;4.20;;;18.30;99.90;;;;;;5082498;28;20045;-36
2023/05/12 09:03:29;;;;;;;4.05;3.72;;;18.40;99.90;;;;;;5082655;28;20065;-35
2023/05/12 09:05:57;;;;;;;4.43;3.95;;;18.50;99.90;;;;;;5082143;28;20036;-35
2023/05/12 09:08:28;;;;;;;4.55;4.15;;;18.50;99.90;;;;;;5082588;28;20031;-35
2023/05/12 09:10:57;;;;;;;3.95;3.40;;;18.60;99.90;;;;;;5082995;28;20028;-36
2023/05/12 09:13:45;;;;;;;3.60;3.30;;;18.50;99.90;;;;;;5081121;28;20020;-35
2023/05/12 09:16:16;;;;;;;4.20;3.80;;;18.60;99.90;;;;;;5081705;28;20781;-36
2023/05/12 09:18:56;;;;;;;3.33;3.03;;;18.70;99.90;;;;;;5081559;28;20034;-36
2023/05/12 09:21:22;;;;;;;3.72;3.40;;;18.80;99.90;;;;;;5081155;28;20034;-35
2023/05/12 09:23:51;;;;;;;3.15;2.60;;;18.80;99.90;;;;;;5081930;28;20052;-34
2023/05/12 09:26:17;;;;;;;2.88;2.58;;;18.90;99.90;;;;;;5081668;28;20024;-35
2023/05/12 09:28:43;;;;;;;3.10;2.80;;;18.90;99.90;;;;;;5081594;28;20032;-36
2023/05/12 09:31:16;;;;;;;2.85;2.40;;;18.90;99.90;;;;;;5082002;28;20459;-35
2023/05/12 09:33:42;;;;;;;2.72;2.50;;;18.90;99.90;;;;;;5081678;28;20058;-35
2023/05/12 09:36:08;;;;;;;2.20;2.03;;;18.90;99.90;;;;;;5080991;28;20044;-35
2023/05/12 09:38:33;;;;;;;2.40;2.20;;;19.00;99.90;;;;;;5082021;28;20027;-36
2023/05/12 09:40:59;;;;;;;1.95;1.80;;;19.00;99.90;;;;;;5081561;28;20020;-35
2023/05/12 09:43:24;;;;;;;2.35;2.05;;;19.10;99.90;;;;;;5082089;28;20028;-35
2023/05/12 09:45:50;;;;;;;2.03;1.92;;;19.20;99.90;;;;;;5081864;28;20031;-35
2023/05/12 09:48:16;;;;;;;3.80;2.22;;;19.20;99.90;;;;;;5082291;28;20020;-35
2023/05/12 09:50:46;;;;;;;2.00;1.90;;;19.30;99.90;;;;;;5082213;28;20109;-33
2023/05/12 09:53:12;;;;;;;2.70;2.10;;;19.40;99.90;;;;;;5082655;28;20129;-36
2023/05/12 09:55:37;;;;;;;2.35;2.15;;;19.40;99.90;;;;;;5080590;28;20024;-35
2023/05/12 09:58:08;;;;;;;2.65;2.45;;;19.40;99.90;;;;;;5081994;28;20038;-35
2023/05/12 10:00:37;;;;;;;2.20;2.10;;;19.40;99.90;;;;;;5081236;28;20024;-35
2023/05/12 10:03:21;;;;;;;3.05;2.55;;;19.40;99.90;;;;;;5081222;28;20039;-34
2023/05/12 10:06:00;;;;;;;3.25;2.80;;;19.30;99.90;;;;;;5081273;28;20700;-36
2023/05/12 10:08:56;;;;;;;2.30;2.10;;;19.30;99.90;;;;;;5081529;28;20097;-35
2023/05/12 10:11:22;;;;;;;2.50;2.30;;;19.30;99.90;;;;;;5079852;28;20464;-35
2023/05/12 10:13:48;;;;;;;2.20;2.00;;;19.40;99.90;;;;;;5081280;28;20035;-35
2023/05/12 10:16:14;;;;;;;2.03;1.55;;;19.40;99.90;;;;;;5080732;28;20032;-35
2023/05/12 10:18:43;;;;;;;2.65;1.70;;;19.60;99.90;;;;;;5080663;28;20128;-35
2023/05/12 10:21:10;;;;;;;1.90;1.63;;;19.70;99.90;;;;;;5080131;28;20028;-35
2023/05/12 10:23:40;;;;;;;2.75;2.00;;;19.80;99.90;;;;;;5079579;28;20107;-35
2023/05/12 10:26:06;;;;;;;2.20;2.00;;;19.80;99.90;;;;;;5080555;28;20197;-36
2023/05/12 10:28:31;;;;;;;2.00;1.90;;;19.90;99.90;;;;;;5080724;28;20043;-35
2023/05/12 10:30:58;;;;;;;2.10;1.90;;;20.00;99.90;;;;;;5080961;28;20731;-35
2023/05/12 10:33:24;;;;;;;2.15;1.95;;;20.10;99.90;;;;;;5069326;28;20110;-36
2023/05/12 10:35:51;;;;;;;2.30;2.05;;;20.20;99.90;;;;;;5080600;28;20035;-35
2023/05/12 10:38:20;;;;;;;1.85;1.75;;;20.20;99.90;;;;;;5080825;28;20170;-36
2023/05/12 10:40:51;;;;;;;1.77;1.67;;;20.30;99.90;;;;;;5081262;28;20035;-35
2023/05/12 10:43:25;;;;;;;2.30;2.10;;;20.30;99.90;;;;;;5076978;28;20804;-35
2023/05/12 10:46:20;;;;;;;3.10;1.95;;;20.40;99.90;;;;;;5080471;28;20028;-35
2023/05/12 10:48:59;;;;;;;2.00;1.90;;;20.40;99.90;;;;;;5080359;28;20092;-34
2023/05/12 10:51:27;;;;;;;1.73;1.63;;;20.40;99.90;;;;;;5079765;28;20058;-35
2023/05/12 10:54:04;;;;;;;1.83;1.73;;;20.50;99.90;;;;;;5080366;28;20586;-34
2023/05/12 10:56:37;;;;;;;1.80;1.70;;;20.50;99.90;;;;;;5081124;28;20451;-35
2023/05/12 10:59:28;;;;;;;1.90;1.73;;;20.70;99.90;;;;;;5087211;28;20047;-35
2023/05/12 11:02:01;;;;;;;2.15;1.75;;;20.90;99.90;;;;;;5082706;28;20054;-36
2023/05/12 11:04:44;;;;;;;2.17;1.80;;;20.90;99.90;;;;;;5075980;28;20050;-35
2023/05/12 11:07:11;;;;;;;;;;;21.00;99.90;;;;;;5087917;28;20030;-34
2023/05/12 11:09:41;;;;;;;1.80;1.70;;;21.10;99.90;;;;;;5087134;28;19951;-34
2023/05/12 11:12:08;;;;;;;2.20;2.00;;;21.10;99.90;;;;;;5087243;28;20027;-35
2023/05/12 11:14:35;;;;;;;2.28;2.00;;;21.10;99.90;;;;;;5086461;28;20016;-35
2023/05/12 11:17:01;;;;;;;1.85;1.70;;;21.00;99.90;;;;;;5087389;28;20036;-34
2023/05/12 11:19:30;;;;;;;3.33;1.80;;;21.00;99.90;;;;;;5086678;28;20585;-34
2023/05/12 11:21:56;;;;;;;1.58;1.48;;;21.00;99.90;;;;;;5087649;28;20067;-35
2023/05/12 11:24:22;;;;;;;1.70;1.55;;;21.00;99.90;;;;;;5086914;28;20111;-35
2023/05/12 11:26:51;;;;;;;2.13;1.55;;;21.10;99.90;;;;;;5087000;28;20038;-35
2023/05/12 11:29:21;;;;;;;1.83;1.60;;;21.20;99.90;;;;;;5086745;28;20023;-35
2023/05/12 11:31:48;;;;;;;2.00;1.80;;;21.30;99.90;;;;;;5086472;28;20031;-35
2023/05/12 11:34:14;;;;;;;1.70;1.60;;;21.30;99.90;;;;;;5086329;28;20471;-36
2023/05/12 11:36:41;;;;;;;1.80;1.70;;;21.30;99.90;;;;;;5086827;28;20043;-34
2023/05/12 11:39:12;;;;;;;1.90;1.70;;;21.30;99.90;;;;;;5087109;28;20066;-34
2023/05/12 11:41:38;;;;;;;1.50;1.40;;;21.30;99.90;;;;;;5085869;28;20036;-36
2023/05/12 11:44:18;;;;;;;1.60;1.38;;;21.40;99.90;;;;;;5086924;28;20027;-35
2023/05/12 11:47:13;;;;;;;1.30;1.20;;;21.40;99.90;;;;;;5086978;28;20058;-34
2023/05/12 11:49:47;;;;;;;1.40;1.30;;;21.60;99.90;;;;;;5064098;28;20040;-35
2023/05/12 11:52:13;;;;;;;1.60;1.50;;;21.70;99.90;;;;;;5087163;28;20447;-35
2023/05/12 11:54:50;;;;;;;2.20;1.75;;;21.90;99.90;;;;;;5086036;28;20398;-37
2023/05/12 11:57:25;;;;;;;2.60;1.60;;;22.00;99.90;;;;;;5087491;28;20039;-36
2023/05/12 12:00:00;;;;;;;1.80;1.70;;;22.10;99.90;;;;;;5086889;28;20837;-35
2023/05/12 12:02:26;;;;;;;2.10;2.00;;;22.20;99.90;;;;;;5086225;28;20020;-35
2023/05/12 12:04:52;;;;;;;2.22;2.00;;;22.30;99.90;;;;;;5086457;28;20016;-35
2023/05/12 12:07:36;;;;;;;1.85;1.75;;;22.30;99.90;;;;;;5086864;28;20024;-34
2023/05/12 12:10:16;;;;;;;1.70;1.60;;;22.30;99.90;;;;;;5082935;28;20127;-37
2023/05/12 12:12:43;;;;;;;2.33;1.70;;;22.40;99.90;;;;;;5083208;28;20917;-35
2023/05/12 12:15:09;;;;;;;2.10;1.90;;;22.40;99.90;;;;;;5083726;28;20024;-35
2023/05/12 12:17:38;;;;;;;4.35;1.95;;;22.40;99.90;;;;;;5081951;28;20130;-35
2023/05/12 12:20:04;;;;;;;1.90;1.60;;;22.50;99.90;;;;;;5083305;28;20086;-35
2023/05/12 12:22:33;;;;;;;1.67;1.58;;;22.50;99.90;;;;;;5083031;28;20032;-36
2023/05/12 12:24:59;;;;;;;2.33;2.13;;;22.60;99.90;;;;;;5082888;28;20043;-34
2023/05/12 12:27:24;;;;;;;1.83;1.70;;;22.60;99.90;;;;;;5082958;28;20028;-35
2023/05/12 12:29:50;;;;;;;3.90;2.10;;;22.60;99.50;;;;;;5082540;28;20024;-35
2023/05/12 12:32:16;;;;;;;2.28;2.08;;;22.50;99.40;;;;;;5083252;28;20036;-37
2023/05/12 12:34:43;;;;;;;2.97;2.08;;;22.60;99.30;;;;;;5083312;28;20135;-35
2023/05/12 12:37:09;;;;;;;2.00;1.90;;;22.60;99.20;;;;;;5082676;28;20113;-35
2023/05/12 12:39:35;;;;;;;1.73;1.58;;;22.60;98.70;;;;;;5082227;28;20178;-36
2023/05/12 12:42:00;;;;;;;1.63;1.52;;;22.50;98.90;;;;;;5083020;28;20032;-35